Share

Akatsi, Ghana

Tokoin (DXXX) Elev 82 ft | 6.17 °N, 1.25 °E | Change Station

Current weather conditions updated 29 minutes ago

Partly Cloudy
Partly Cloudy
90 °F
Feels Like 100 °F
N
12
Wind Variable Wind from SSW
Sunrise 5:47 AM
Sunset 6:04 PM
Moon Waning Gibbous

Today is forecast to be nearly the same temperature as yesterday.

Pressure 29.80 in
Visibility 6.2 miles
Clouds Few 1700 ft
Heat Index 100 °F
Dew Point 75 °F
Humidity 62%
Rainfall 0.00 in
Snow Depth Not available.
UV 11 out of 16
Pollen Not available.
Air Quality Not available.
Flu Activity Not available.
METAR DXXX 191400Z 20010KT 170V230 9999 FEW017 32/24 Q1009 NOSIG

More Conditions Fewer Conditions

Pressure 29.80 in
Visibility 6.2 miles
Clouds Few 1700 ft
Heat Index 100 °F
Dew Point 75 °F
Humidity 62%
Rainfall 0.00 in
Snow Depth Not available.
UV 11 out of 16
Pollen Not available.
Air Quality Not available.
Flu Activity Not available.
METAR DXXX 191400Z 20010KT 170V230 9999 FEW017 32/24 Q1009 NOSIG

More Conditions Fewer Conditions

10-Day Weather Forecast

Almanac

Astronomy

Apr. 19, 2014 Rise Set
Actual Time 5:47 AM GMT 6:04 PM GMT
Civil Twilight 5:26 AM GMT 6:25 PM GMT
Nautical Twilight 5:01 AM GMT 6:50 PM GMT
Astronomical Twilight 4:37 AM GMT 7:15 PM GMT
Moon 10:05 PM GMT 9:18 AM GMT
Length of Visible Light 12h 58m
Length of Day
12h 16m
Tomorrow will be 0m 19s longer.
Waning Gibbous, 79% of the Moon is Illuminated
Today
Waning Gibbous
Apr 22
Last Quarter
Apr 29
New
May 6
First Quarter
May 14
Full

Today's Extremes

Country Highs Country Lows

Community

  • A Glorious Morning
    A Glorious Morning
  • Bleeding Hearts
    Bleeding Hearts
  • Sunset Silhouettes
    Sunset Silhouettes
  • FL sunset Perico Isle
    FL sunset Perico Isle
  • La Conner
    La Conner

WunderPhotos

Upload Photos

1,702,742 photos uploaded!

Nearby

Snow Depth

Not available.

Coastal Water Temperatures

Place Temperature
No Stations Reporting

Earthquake Activity

City Distance Mag. Time & Date
No recent earthquake activity has been reported nearby.
Minimum magnitude displayed is 2.5.

Nearby Weather Stations

There are no personal weather stations in this area.

What do you think?

We're not finished. Please let us know what you like, what you don't like, and what you are still missing.